Time;durP1;ratioP1;P1;durP2;ratioP2;P2;SDS_P1;SDS_P2;PMS_P1;PMS_P2;Temp;Humidity;BMP_temperature;BMP_pressure;BME280_temperature;BME280_humidity;BME280_pressure;Samples;Min_cycle;Max_cycle;Signal;HPM_P1;HPM_P2
2023/08/23 00:01:54;;;;;;;19.30;11.20;;;;;;;-128.00;-1.00;-1.00;105583;1253;1004488;-80
2023/08/23 00:04:20;;;;;;;24.60;10.50;;;;;;;-128.00;-1.00;-1.00;105536;1253;1004873;-80
2023/08/23 00:06:47;;;;;;;21.30;11.90;;;;;;;-128.00;-1.00;-1.00;105544;1253;1004304;-80
2023/08/23 00:09:15;;;;;;;23.00;13.90;;;;;;;-128.00;-1.00;-1.00;105542;1253;1004464;-80
2023/08/23 00:11:41;;;;;;;13.70;11.70;;;;;;;-128.00;-1.00;-1.00;105534;1253;1004605;-80
2023/08/23 00:14:08;;;;;;;16.00;11.20;;;;;;;-128.00;-1.00;-1.00;105576;1252;1004034;-81
2023/08/23 00:16:34;;;;;;;18.40;11.40;;;;;;;-128.00;-1.00;-1.00;105548;1252;1003820;-80
2023/08/23 00:19:01;;;;;;;16.50;12.10;;;;;;;-128.00;-1.00;-1.00;105473;1252;1004527;-80
2023/08/23 00:21:28;;;;;;;17.00;13.40;;;;;;;-128.00;-1.00;-1.00;105523;1253;1003677;-80
2023/08/23 00:23:55;;;;;;;15.10;11.40;;;;;;;-128.00;-1.00;-1.00;105398;1252;1004043;-80
2023/08/23 00:26:21;;;;;;;16.90;13.30;;;;;;;-128.00;-1.00;-1.00;105570;1253;1004163;-80
2023/08/23 00:28:48;;;;;;;18.90;13.80;;;;;;;-128.00;-1.00;-1.00;105529;1253;1004840;-80
2023/08/23 00:31:15;;;;;;;17.40;13.00;;;;;;;-128.00;-1.00;-1.00;105569;1253;1004203;-80
2023/08/23 00:33:41;;;;;;;20.90;14.40;;;;;;;-128.00;-1.00;-1.00;105570;1253;1003913;-81
2023/08/23 00:36:08;;;;;;;16.50;13.70;;;;;;;-128.00;-1.00;-1.00;105565;1252;1004505;-81
2023/08/23 00:38:34;;;;;;;19.30;13.50;;;;;;;-128.00;-1.00;-1.00;105536;1253;1004408;-80
2023/08/23 00:41:01;;;;;;;22.00;12.50;;;;;;;-128.00;-1.00;-1.00;105556;1253;1004919;-80
2023/08/23 00:43:27;;;;;;;16.90;12.60;;;;;;;-128.00;-1.00;-1.00;105566;1253;1004075;-80
2023/08/23 00:45:54;;;;;;;21.50;11.70;;;;;;;-128.00;-1.00;-1.00;105572;1252;1004351;-80
2023/08/23 00:48:20;;;;;;;19.10;12.60;;;;;;;-128.00;-1.00;-1.00;105541;1253;1004529;-80
2023/08/23 00:50:47;;;;;;;18.60;12.30;;;;;;;-128.00;-1.00;-1.00;105543;1252;1004984;-80
2023/08/23 00:53:13;;;;;;;20.20;12.50;;;;;;;-128.00;-1.00;-1.00;105520;1252;1004882;-80
2023/08/23 00:55:40;;;;;;;17.40;12.10;;;;;;;-128.00;-1.00;-1.00;105557;1252;1003753;-80
2023/08/23 00:58:07;;;;;;;16.50;12.70;;;;;;;-128.00;-1.00;-1.00;105563;1253;1004107;-80
2023/08/23 01:00:33;;;;;;;25.20;12.70;;;;;;;-128.00;-1.00;-1.00;105589;1252;1004150;-80
2023/08/23 01:03:00;;;;;;;22.10;12.60;;;;;;;-128.00;-1.00;-1.00;105728;1252;1004215;-80
2023/08/23 01:05:57;;;;;;;18.30;12.20;;;;;;;-128.00;-1.00;-1.00;105613;1253;1004750;-80
2023/08/23 01:08:50;;;;;;;20.20;12.30;;;;;;;-128.00;-1.00;-1.00;105724;1253;1058120;-80
2023/08/23 01:11:35;;;;;;;16.30;12.50;;;;;;;-128.00;-1.00;-1.00;105646;1253;1059715;-80
2023/08/23 01:14:15;;;;;;;17.30;13.00;;;;;;;-128.00;-1.00;-1.00;105717;1252;1046602;-80
2023/08/23 01:16:42;;;;;;;16.80;12.40;;;;;;;-128.00;-1.00;-1.00;105518;1254;1047149;-81
2023/08/23 01:19:45;;;;;;;16.10;12.40;;;;;;;-128.00;-1.00;-1.00;105580;1254;1003978;-81
2023/08/23 01:22:16;;;;;;;18.00;12.90;;;;;;;-128.00;-1.00;-1.00;105348;1254;1057736;-81
2023/08/23 01:24:42;;;;;;;21.20;12.70;;;;;;;-128.00;-1.00;-1.00;105672;1253;1059500;-81
2023/08/23 01:27:09;;;;;;;18.20;13.00;;;;;;;-128.00;-1.00;-1.00;105583;1253;1004147;-81
2023/08/23 01:29:35;;;;;;;18.60;11.80;;;;;;;-128.00;-1.00;-1.00;105714;1252;1004209;-81
2023/08/23 01:32:23;;;;;;;16.20;12.10;;;;;;;-128.00;-1.00;-1.00;105552;1253;1004302;-81
2023/08/23 01:34:51;;;;;;;14.90;13.30;;;;;;;-128.00;-1.00;-1.00;105407;1253;1057912;-81
2023/08/23 01:37:20;;;;;;;19.30;11.70;;;;;;;-128.00;-1.00;-1.00;105540;1253;1004456;-80
2023/08/23 01:39:47;;;;;;;17.00;14.20;;;;;;;-128.00;-1.00;-1.00;105404;1252;1045971;-80
2023/08/23 01:42:13;;;;;;;20.90;13.20;;;;;;;-128.00;-1.00;-1.00;105416;1254;1004088;-80
2023/08/23 01:44:43;;;;;;;17.80;13.60;;;;;;;-128.00;-1.00;-1.00;105586;1252;1004580;-80
2023/08/23 01:47:09;;;;;;;16.40;13.20;;;;;;;-128.00;-1.00;-1.00;105417;1256;1057993;-80
2023/08/23 01:49:36;;;;;;;15.90;13.50;;;;;;;-128.00;-1.00;-1.00;105554;1252;1004440;-80
2023/08/23 01:52:03;;;;;;;15.50;13.00;;;;;;;-128.00;-1.00;-1.00;105535;1252;1004432;-80
2023/08/23 01:54:29;;;;;;;16.80;13.50;;;;;;;-128.00;-1.00;-1.00;105541;1252;1004632;-80
2023/08/23 01:56:56;;;;;;;15.20;12.30;;;;;;;-128.00;-1.00;-1.00;105562;1253;1004431;-80
2023/08/23 01:59:22;;;;;;;13.80;12.00;;;;;;;-128.00;-1.00;-1.00;105539;1254;1003642;-80
2023/08/23 02:01:49;;;;;;;15.00;11.50;;;;;;;-128.00;-1.00;-1.00;105563;1253;1005154;-80
2023/08/23 02:04:16;;;;;;;16.90;12.90;;;;;;;-128.00;-1.00;-1.00;105593;1251;1004127;-81
2023/08/23 02:06:43;;;;;;;16.60;13.30;;;;;;;-128.00;-1.00;-1.00;105653;1251;1004850;-81
2023/08/23 02:09:10;;;;;;;15.50;11.40;;;;;;;-128.00;-1.00;-1.00;105496;1251;1005160;-80
2023/08/23 02:11:37;;;;;;;21.50;12.90;;;;;;;-128.00;-1.00;-1.00;105602;1251;1004301;-81
2023/08/23 02:14:03;;;;;;;17.90;12.50;;;;;;;-128.00;-1.00;-1.00;105648;1251;1004243;-81
2023/08/23 02:16:30;;;;;;;20.20;12.40;;;;;;;-128.00;-1.00;-1.00;105532;1251;1003534;-80
2023/08/23 02:18:56;;;;;;;13.10;11.70;;;;;;;-128.00;-1.00;-1.00;105552;1253;1004868;-81
2023/08/23 02:21:23;;;;;;;14.60;12.30;;;;;;;-128.00;-1.00;-1.00;105506;1252;1004629;-81
2023/08/23 02:23:49;;;;;;;16.50;12.30;;;;;;;-128.00;-1.00;-1.00;105542;1253;1004762;-81
2023/08/23 02:26:16;;;;;;;14.70;12.20;;;;;;;-128.00;-1.00;-1.00;105541;1252;1004183;-81
2023/08/23 02:28:42;;;;;;;15.80;11.50;;;;;;;-128.00;-1.00;-1.00;105524;1252;1003528;-80
2023/08/23 02:31:09;;;;;;;17.30;11.30;;;;;;;-128.00;-1.00;-1.00;105341;1252;1004520;-80
2023/08/23 02:33:35;;;;;;;15.60;11.70;;;;;;;-128.00;-1.00;-1.00;105516;1254;1004325;-80
2023/08/23 02:36:02;;;;;;;19.40;12.50;;;;;;;-128.00;-1.00;-1.00;105558;1253;1004799;-80
2023/08/23 02:38:28;;;;;;;12.20;10.70;;;;;;;-128.00;-1.00;-1.00;105534;1253;1004652;-80
2023/08/23 02:40:55;;;;;;;16.00;11.50;;;;;;;-128.00;-1.00;-1.00;105524;1252;1004345;-80
2023/08/23 02:43:22;;;;;;;22.40;15.40;;;;;;;-128.00;-1.00;-1.00;105649;1252;1004403;-80
2023/08/23 02:45:48;;;;;;;23.10;16.00;;;;;;;-128.00;-1.00;-1.00;105442;1252;1004169;-81
2023/08/23 02:48:15;;;;;;;19.70;13.70;;;;;;;-128.00;-1.00;-1.00;105553;1252;1004020;-80
2023/08/23 02:50:43;;;;;;;19.70;15.40;;;;;;;-128.00;-1.00;-1.00;105422;1252;1004167;-80
2023/08/23 02:53:10;;;;;;;17.40;14.00;;;;;;;-128.00;-1.00;-1.00;105569;1252;1004591;-80
2023/08/23 02:55:37;;;;;;;26.80;14.70;;;;;;;-128.00;-1.00;-1.00;105555;1252;1004649;-81
2023/08/23 02:58:03;;;;;;;16.70;13.50;;;;;;;-128.00;-1.00;-1.00;105540;1252;1003514;-80
2023/08/23 03:00:30;;;;;;;15.20;9.60;;;;;;;-128.00;-1.00;-1.00;105548;1252;1003829;-80
2023/08/23 03:02:57;;;;;;;18.40;11.10;;;;;;;-128.00;-1.00;-1.00;105570;1252;1004863;-81
2023/08/23 03:05:23;;;;;;;14.40;11.90;;;;;;;-128.00;-1.00;-1.00;105504;1254;1004301;-81
2023/08/23 03:07:50;;;;;;;16.00;11.60;;;;;;;-128.00;-1.00;-1.00;105405;1253;1006004;-80
2023/08/23 03:10:16;;;;;;;18.60;12.60;;;;;;;-128.00;-1.00;-1.00;105567;1252;1003564;-81
2023/08/23 03:12:43;;;;;;;24.00;13.00;;;;;;;-128.00;-1.00;-1.00;105659;1251;1004509;-80
2023/08/23 03:15:09;;;;;;;17.00;11.90;;;;;;;-128.00;-1.00;-1.00;105598;1251;1003589;-82
2023/08/23 03:17:36;;;;;;;17.40;11.50;;;;;;;-128.00;-1.00;-1.00;105601;1251;1003364;-80
2023/08/23 03:20:03;;;;;;;14.70;10.40;;;;;;;-128.00;-1.00;-1.00;105544;1253;1004861;-81
2023/08/23 03:22:30;;;;;;;19.10;11.90;;;;;;;-128.00;-1.00;-1.00;105569;1252;1004348;-81
2023/08/23 03:24:56;;;;;;;13.70;11.80;;;;;;;-128.00;-1.00;-1.00;105397;1254;1004790;-80
2023/08/23 03:27:24;;;;;;;15.50;11.50;;;;;;;-128.00;-1.00;-1.00;105372;1254;1003869;-80
2023/08/23 03:29:51;;;;;;;12.00;10.30;;;;;;;-128.00;-1.00;-1.00;105532;1253;1003567;-80
2023/08/23 03:32:19;;;;;;;11.50;10.30;;;;;;;-128.00;-1.00;-1.00;105547;1252;1004278;-80
2023/08/23 03:34:45;;;;;;;16.00;10.70;;;;;;;-128.00;-1.00;-1.00;105578;1253;1004204;-80
2023/08/23 03:37:12;;;;;;;18.50;11.30;;;;;;;-128.00;-1.00;-1.00;105562;1253;1003404;-80
2023/08/23 03:39:39;;;;;;;14.70;10.50;;;;;;;-128.00;-1.00;-1.00;105553;1252;1004072;-80
2023/08/23 03:42:05;;;;;;;18.00;11.80;;;;;;;-128.00;-1.00;-1.00;105394;1252;1005586;-80
2023/08/23 03:44:32;;;;;;;15.80;11.20;;;;;;;-128.00;-1.00;-1.00;105549;1252;1004289;-80
2023/08/23 03:46:58;;;;;;;13.40;11.40;;;;;;;-128.00;-1.00;-1.00;105728;1253;1005091;-81
2023/08/23 03:49:25;;;;;;;15.30;11.50;;;;;;;-128.00;-1.00;-1.00;105747;1253;1004552;-81
2023/08/23 03:51:51;;;;;;;11.60;9.80;;;;;;;-128.00;-1.00;-1.00;105717;1252;1003830;-81
2023/08/23 03:54:19;;;;;;;15.40;10.50;;;;;;;-128.00;-1.00;-1.00;105414;1253;1004149;-81
2023/08/23 03:56:45;;;;;;;14.90;9.90;;;;;;;-128.00;-1.00;-1.00;105551;1253;1005264;-80
2023/08/23 03:59:12;;;;;;;19.80;10.50;;;;;;;-128.00;-1.00;-1.00;105538;1253;1004369;-81
2023/08/23 04:01:38;;;;;;;15.60;10.80;;;;;;;-128.00;-1.00;-1.00;105373;1254;1004279;-81
2023/08/23 04:04:05;;;;;;;13.90;9.50;;;;;;;-128.00;-1.00;-1.00;105420;1253;1003753;-80
2023/08/23 04:06:31;;;;;;;12.60;10.00;;;;;;;-128.00;-1.00;-1.00;105545;1253;1004553;-80
2023/08/23 04:08:58;;;;;;;13.10;10.60;;;;;;;-128.00;-1.00;-1.00;105569;1252;1003977;-80
2023/08/23 04:11:24;;;;;;;12.90;9.60;;;;;;;-128.00;-1.00;-1.00;105584;1253;1004462;-80
2023/08/23 04:13:51;;;;;;;16.00;9.90;;;;;;;-128.00;-1.00;-1.00;105422;1253;1004970;-80
2023/08/23 04:16:17;;;;;;;17.80;10.90;;;;;;;-128.00;-1.00;-1.00;105547;1252;1004348;-81
2023/08/23 04:18:44;;;;;;;12.40;11.10;;;;;;;-128.00;-1.00;-1.00;105544;1252;1003611;-80
2023/08/23 04:21:10;;;;;;;25.00;20.50;;;;;;;-128.00;-1.00;-1.00;105545;1254;1003991;-80
2023/08/23 04:23:37;;;;;;;21.30;14.70;;;;;;;-128.00;-1.00;-1.00;105480;1252;1004011;-80
2023/08/23 04:26:03;;;;;;;16.90;13.50;;;;;;;-128.00;-1.00;-1.00;105477;1253;1003910;-80
2023/08/23 04:28:30;;;;;;;16.80;12.00;;;;;;;-128.00;-1.00;-1.00;105628;1254;1004968;-80
2023/08/23 04:31:00;;;;;;;20.10;12.10;;;;;;;-128.00;-1.00;-1.00;105640;1254;1003970;-80
2023/08/23 04:33:27;;;;;;;15.60;11.90;;;;;;;-128.00;-1.00;-1.00;105506;1254;1047219;-80
2023/08/23 04:35:53;;;;;;;14.10;12.40;;;;;;;-128.00;-1.00;-1.00;105630;1253;1005038;-80
2023/08/23 04:38:20;;;;;;;15.20;12.20;;;;;;;-128.00;-1.00;-1.00;105673;1253;1003829;-80
2023/08/23 04:40:46;;;;;;;13.30;11.10;;;;;;;-128.00;-1.00;-1.00;105710;1251;1004278;-80
2023/08/23 04:43:13;;;;;;;28.80;17.90;;;;;;;-128.00;-1.00;-1.00;105654;1252;1003845;-81
2023/08/23 04:45:39;;;;;;;20.90;15.60;;;;;;;-128.00;-1.00;-1.00;105664;1253;1005037;-81
2023/08/23 04:48:06;;;;;;;26.30;18.70;;;;;;;-128.00;-1.00;-1.00;105642;1253;1004046;-81
2023/08/23 04:50:33;;;;;;;22.10;13.60;;;;;;;-128.00;-1.00;-1.00;105633;1254;1004228;-81
2023/08/23 04:52:59;;;;;;;16.50;11.60;;;;;;;-128.00;-1.00;-1.00;105645;1254;1004869;-81
2023/08/23 04:55:26;;;;;;;15.10;11.60;;;;;;;-128.00;-1.00;-1.00;105595;1253;1004301;-81
2023/08/23 04:57:52;;;;;;;13.80;10.80;;;;;;;-128.00;-1.00;-1.00;105723;1252;1004660;-81
2023/08/23 05:00:19;;;;;;;14.60;10.50;;;;;;;-128.00;-1.00;-1.00;105686;1253;1004427;-81
2023/08/23 05:02:45;;;;;;;13.20;10.30;;;;;;;-128.00;-1.00;-1.00;105681;1253;1004434;-80
2023/08/23 05:05:12;;;;;;;20.40;11.60;;;;;;;-128.00;-1.00;-1.00;105544;1253;1004070;-80
2023/08/23 05:07:38;;;;;;;12.20;10.70;;;;;;;-128.00;-1.00;-1.00;105453;1252;1004544;-80
2023/08/23 05:10:06;;;;;;;14.80;11.30;;;;;;;-128.00;-1.00;-1.00;105462;1253;1004135;-80
2023/08/23 05:12:33;;;;;;;14.30;12.10;;;;;;;-128.00;-1.00;-1.00;105498;1252;1005080;-80
2023/08/23 05:14:59;;;;;;;17.20;13.30;;;;;;;-128.00;-1.00;-1.00;105667;1252;1004409;-80
2023/08/23 05:17:25;;;;;;;15.40;12.10;;;;;;;-128.00;-1.00;-1.00;105644;1252;1004276;-81
2023/08/23 05:19:52;;;;;;;15.00;11.80;;;;;;;-128.00;-1.00;-1.00;105621;1253;1003495;-81
2023/08/23 05:22:18;;;;;;;13.40;11.90;;;;;;;-128.00;-1.00;-1.00;105722;1251;1004389;-81
2023/08/23 05:24:45;;;;;;;17.20;11.90;;;;;;;-128.00;-1.00;-1.00;105721;1251;1004054;-80
2023/08/23 05:27:12;;;;;;;17.00;14.20;;;;;;;-128.00;-1.00;-1.00;105698;1251;1003974;-80
2023/08/23 05:29:38;;;;;;;15.70;13.00;;;;;;;-128.00;-1.00;-1.00;105722;1253;1004390;-80
2023/08/23 05:32:05;;;;;;;16.40;11.80;;;;;;;-128.00;-1.00;-1.00;105676;1252;1004879;-81
2023/08/23 05:34:31;;;;;;;16.60;11.40;;;;;;;-128.00;-1.00;-1.00;105491;1252;1004689;-80
2023/08/23 05:36:58;;;;;;;13.30;11.00;;;;;;;-128.00;-1.00;-1.00;105495;1252;1004085;-81
2023/08/23 05:39:24;;;;;;;16.30;11.40;;;;;;;-128.00;-1.00;-1.00;105603;1251;1003802;-80
2023/08/23 05:41:51;;;;;;;21.10;10.90;;;;;;;-128.00;-1.00;-1.00;105545;1251;1004245;-80
2023/08/23 05:44:17;;;;;;;14.70;11.90;;;;;;;-128.00;-1.00;-1.00;105526;1251;1004571;-80
2023/08/23 05:46:44;;;;;;;21.30;11.80;;;;;;;-128.00;-1.00;-1.00;105496;1252;1004962;-81
2023/08/23 05:49:10;;;;;;;18.50;14.80;;;;;;;-128.00;-1.00;-1.00;105463;1253;1004464;-81
2023/08/23 05:51:37;;;;;;;20.90;13.80;;;;;;;-128.00;-1.00;-1.00;105527;1253;1003997;-81
2023/08/23 05:54:06;;;;;;;17.70;14.20;;;;;;;-128.00;-1.00;-1.00;105476;1252;1004985;-81
2023/08/23 05:56:32;;;;;;;;;;;;;;;-128.00;-1.00;-1.00;105457;1256;1045866;-81
2023/08/23 05:58:59;;;;;;;20.90;15.30;;;;;;;-128.00;-1.00;-1.00;105505;1253;1004047;-81
2023/08/23 06:01:25;;;;;;;19.20;15.20;;;;;;;-128.00;-1.00;-1.00;105482;1253;1005051;-80
2023/08/23 06:03:52;;;;;;;19.00;14.70;;;;;;;-128.00;-1.00;-1.00;105467;1253;1004506;-80
2023/08/23 06:06:18;;;;;;;26.70;20.20;;;;;;;-128.00;-1.00;-1.00;105521;1253;1005142;-80
2023/08/23 06:08:44;;;;;;;27.90;19.30;;;;;;;-128.00;-1.00;-1.00;105503;1253;1004271;-80
2023/08/23 06:11:11;;;;;;;26.40;18.00;;;;;;;-128.00;-1.00;-1.00;105512;1253;1004571;-80
2023/08/23 06:13:37;;;;;;;27.10;19.10;;;;;;;-128.00;-1.00;-1.00;105513;1253;1004593;-80
2023/08/23 06:16:04;;;;;;;31.20;21.50;;;;;;;-128.00;-1.00;-1.00;105500;1255;1004066;-80
2023/08/23 06:18:30;;;;;;;30.80;21.70;;;;;;;-128.00;-1.00;-1.00;105468;1253;1003911;-81
2023/08/23 06:20:57;;;;;;;28.50;22.00;;;;;;;-128.00;-1.00;-1.00;105343;1251;1004684;-81
2023/08/23 06:23:24;;;;;;;30.10;21.50;;;;;;;-128.00;-1.00;-1.00;105518;1253;1005015;-81
2023/08/23 06:25:58;;;;;;;27.00;21.40;;;;;;;-128.00;-1.00;-1.00;105424;1252;1004943;-81
2023/08/23 06:28:24;;;;;;;29.30;22.80;;;;;;;-128.00;-1.00;-1.00;105464;1253;1057296;-81
2023/08/23 06:30:51;;;;;;;37.70;24.60;;;;;;;-128.00;-1.00;-1.00;105485;1253;1005081;-81
2023/08/23 06:33:17;;;;;;;27.20;22.60;;;;;;;-128.00;-1.00;-1.00;105463;1253;1004371;-81
2023/08/23 06:35:44;;;;;;;30.30;22.00;;;;;;;-128.00;-1.00;-1.00;105418;1252;1004072;-81
2023/08/23 06:38:11;;;;;;;26.00;20.30;;;;;;;-128.00;-1.00;-1.00;105486;1251;1003762;-81
2023/08/23 06:40:38;;;;;;;24.80;19.50;;;;;;;-128.00;-1.00;-1.00;105529;1251;1004403;-81
2023/08/23 06:43:05;;;;;;;26.60;20.80;;;;;;;-128.00;-1.00;-1.00;105467;1254;1003637;-81
2023/08/23 06:45:31;;;;;;;23.20;19.90;;;;;;;-128.00;-1.00;-1.00;105525;1251;1004502;-80
2023/08/23 06:47:58;;;;;;;25.20;20.40;;;;;;;-128.00;-1.00;-1.00;105504;1253;1003811;-81
2023/08/23 06:50:24;;;;;;;25.30;21.20;;;;;;;-128.00;-1.00;-1.00;105311;1254;1005128;-80
2023/08/23 06:52:50;;;;;;;29.10;22.70;;;;;;;-128.00;-1.00;-1.00;105492;1253;1003968;-81
2023/08/23 06:55:19;;;;;;;27.70;22.50;;;;;;;-128.00;-1.00;-1.00;105357;1254;1003637;-80
2023/08/23 06:57:46;;;;;;;26.70;23.40;;;;;;;-128.00;-1.00;-1.00;105427;1253;1047383;-81
2023/08/23 07:00:13;;;;;;;30.70;26.50;;;;;;;-128.00;-1.00;-1.00;105508;1252;1003975;-80
2023/08/23 07:02:39;;;;;;;42.60;34.60;;;;;;;-128.00;-1.00;-1.00;105330;1254;1004643;-80
2023/08/23 07:05:06;;;;;;;35.90;29.60;;;;;;;-128.00;-1.00;-1.00;105493;1253;1005268;-80
2023/08/23 07:07:32;;;;;;;36.50;32.00;;;;;;;-128.00;-1.00;-1.00;105453;1253;1005271;-81
2023/08/23 07:09:59;;;;;;;46.30;39.70;;;;;;;-128.00;-1.00;-1.00;105483;1252;1004393;-81
2023/08/23 07:12:26;;;;;;;42.10;35.60;;;;;;;-128.00;-1.00;-1.00;105450;1252;1003903;-80
2023/08/23 07:14:52;;;;;;;41.30;29.40;;;;;;;-128.00;-1.00;-1.00;105472;1256;1004382;-81
2023/08/23 07:17:19;;;;;;;36.90;29.40;;;;;;;-128.00;-1.00;-1.00;105501;1253;1004924;-81
2023/08/23 07:19:48;;;;;;;40.80;30.60;;;;;;;-128.00;-1.00;-1.00;105468;1253;1003555;-81
2023/08/23 07:22:15;;;;;;;41.90;31.10;;;;;;;-128.00;-1.00;-1.00;105516;1252;1046471;-81
2023/08/23 07:24:41;;;;;;;37.00;29.20;;;;;;;-128.00;-1.00;-1.00;105456;1254;1004564;-80
2023/08/23 07:27:08;;;;;;;39.60;28.40;;;;;;;-128.00;-1.00;-1.00;105492;1253;1003789;-80
2023/08/23 07:29:35;;;;;;;41.50;28.00;;;;;;;-128.00;-1.00;-1.00;105513;1253;1004470;-81
2023/08/23 07:32:01;;;;;;;43.00;28.50;;;;;;;-128.00;-1.00;-1.00;105510;1251;1004649;-81
2023/08/23 07:34:28;;;;;;;40.10;29.40;;;;;;;-128.00;-1.00;-1.00;105488;1252;1004673;-81
2023/08/23 07:36:54;;;;;;;39.50;28.20;;;;;;;-128.00;-1.00;-1.00;105560;1255;1003794;-81
2023/08/23 07:39:21;;;;;;;44.60;27.00;;;;;;;-128.00;-1.00;-1.00;105527;1253;1003771;-80
2023/08/23 07:41:48;;;;;;;40.00;26.30;;;;;;;-128.00;-1.00;-1.00;105514;1253;1004004;-81
2023/08/23 07:44:14;;;;;;;31.90;24.40;;;;;;;-128.00;-1.00;-1.00;105479;1253;1004554;-80
2023/08/23 07:46:40;;;;;;;33.50;25.20;;;;;;;-128.00;-1.00;-1.00;105428;1253;1004547;-80
2023/08/23 07:49:07;;;;;;;35.00;24.00;;;;;;;-128.00;-1.00;-1.00;105466;1252;1004690;-80
2023/08/23 07:51:34;;;;;;;33.00;23.80;;;;;;;-128.00;-1.00;-1.00;105448;1252;1003974;-80
2023/08/23 07:54:00;;;;;;;34.40;23.40;;;;;;;-128.00;-1.00;-1.00;105336;1254;1004419;-80
2023/08/23 07:56:27;;;;;;;35.30;24.50;;;;;;;-128.00;-1.00;-1.00;105484;1253;1004472;-81
2023/08/23 07:58:53;;;;;;;29.80;22.20;;;;;;;-128.00;-1.00;-1.00;105456;1254;1003339;-81
2023/08/23 08:01:20;;;;;;;31.20;23.70;;;;;;;-128.00;-1.00;-1.00;105503;1253;1004105;-81
2023/08/23 08:03:46;;;;;;;32.20;22.80;;;;;;;-128.00;-1.00;-1.00;105498;1253;1004584;-82
2023/08/23 08:06:13;;;;;;;31.30;21.80;;;;;;;-128.00;-1.00;-1.00;105535;1251;1004271;-81
2023/08/23 08:08:42;;;;;;;30.20;21.90;;;;;;;-128.00;-1.00;-1.00;105512;1254;1004640;-81
2023/08/23 08:11:12;;;;;;;29.10;20.10;;;;;;;-128.00;-1.00;-1.00;105504;1251;1046874;-81
2023/08/23 08:13:38;;;;;;;30.40;23.20;;;;;;;-128.00;-1.00;-1.00;105622;1254;1046392;-81
2023/08/23 08:16:09;;;;;;;27.70;20.70;;;;;;;-128.00;-1.00;-1.00;105724;1251;1004306;-81
2023/08/23 08:18:35;;;;;;;36.80;22.30;;;;;;;-128.00;-1.00;-1.00;105668;1253;1058097;-81
2023/08/23 08:21:02;;;;;;;29.10;20.90;;;;;;;-128.00;-1.00;-1.00;105669;1253;1003505;-81
2023/08/23 08:23:29;;;;;;;28.80;21.50;;;;;;;-128.00;-1.00;-1.00;105520;1254;1005143;-81
2023/08/23 08:25:56;;;;;;;24.80;19.50;;;;;;;-128.00;-1.00;-1.00;105674;1251;1004512;-81
2023/08/23 08:28:22;;;;;;;26.00;18.50;;;;;;;-128.00;-1.00;-1.00;105707;1253;1003105;-81
2023/08/23 08:30:49;;;;;;;25.90;19.40;;;;;;;-128.00;-1.00;-1.00;105578;1251;1004433;-81
2023/08/23 08:33:16;;;;;;;23.60;17.70;;;;;;;-128.00;-1.00;-1.00;105674;1256;1004046;-81
2023/08/23 08:35:43;;;;;;;24.70;17.70;;;;;;;-128.00;-1.00;-1.00;105622;1252;1004324;-81
2023/08/23 08:38:10;;;;;;;21.80;17.50;;;;;;;-128.00;-1.00;-1.00;105585;1254;1004112;-81
2023/08/23 08:40:37;;;;;;;23.70;17.60;;;;;;;-128.00;-1.00;-1.00;105698;1254;1004473;-81
2023/08/23 08:43:04;;;;;;;20.40;16.10;;;;;;;-128.00;-1.00;-1.00;105686;1254;1004588;-81
2023/08/23 08:45:31;;;;;;;20.70;16.00;;;;;;;-128.00;-1.00;-1.00;105424;1253;1004336;-81
2023/08/23 08:47:58;;;;;;;19.10;15.30;;;;;;;-128.00;-1.00;-1.00;105424;1251;1004624;-81
2023/08/23 08:50:26;;;;;;;18.00;14.20;;;;;;;-128.00;-1.00;-1.00;105511;1252;1004270;-81
2023/08/23 08:52:53;;;;;;;16.60;14.00;;;;;;;-128.00;-1.00;-1.00;105498;1253;1003847;-81
2023/08/23 08:55:22;;;;;;;17.90;12.60;;;;;;;-128.00;-1.00;-1.00;105476;1256;1004293;-82
2023/08/23 08:57:53;;;;;;;16.50;13.60;;;;;;;-128.00;-1.00;-1.00;105564;1252;1059116;-81
2023/08/23 09:00:22;;;;;;;15.70;12.90;;;;;;;-128.00;-1.00;-1.00;105342;1253;1046028;-81
2023/08/23 09:02:52;;;;;;;15.00;12.10;;;;;;;-128.00;-1.00;-1.00;105568;1253;1046715;-80
2023/08/23 09:05:22;;;;;;;;;;;;;;;-128.00;-1.00;-1.00;105276;1254;1062504;-80
2023/08/23 09:07:49;;;;;;;17.30;12.50;;;;;;;-128.00;-1.00;-1.00;105462;1251;1058207;-80
2023/08/23 09:10:16;;;;;;;19.10;12.80;;;;;;;-128.00;-1.00;-1.00;105563;1251;1003933;-81
2023/08/23 09:12:42;;;;;;;17.40;12.20;;;;;;;-128.00;-1.00;-1.00;105540;1251;1003709;-81
2023/08/23 09:15:09;;;;;;;17.70;14.30;;;;;;;-128.00;-1.00;-1.00;105515;1254;1004895;-81
2023/08/23 09:17:36;;;;;;;18.90;13.20;;;;;;;-128.00;-1.00;-1.00;105355;1253;1005031;-81
2023/08/23 09:20:07;;;;;;;17.10;13.10;;;;;;;-128.00;-1.00;-1.00;105236;1253;1005540;-81
2023/08/23 09:22:33;;;;;;;19.00;13.30;;;;;;;-128.00;-1.00;-1.00;105524;1254;1060459;-81
2023/08/23 09:25:03;;;;;;;14.70;12.60;;;;;;;-128.00;-1.00;-1.00;105595;1254;1004774;-81
2023/08/23 09:27:29;;;;;;;14.60;12.10;;;;;;;-128.00;-1.00;-1.00;105632;1254;1046600;-81
2023/08/23 09:29:58;;;;;;;16.30;12.70;;;;;;;-128.00;-1.00;-1.00;105645;1253;1005110;-81
2023/08/23 09:32:27;;;;;;;17.20;12.80;;;;;;;-128.00;-1.00;-1.00;105587;1253;1058268;-82
2023/08/23 09:34:54;;;;;;;15.50;12.40;;;;;;;-128.00;-1.00;-1.00;105536;1252;1059934;-82
2023/08/23 09:37:20;;;;;;;16.60;11.80;;;;;;;-128.00;-1.00;-1.00;105626;1253;1004203;-82
2023/08/23 09:39:47;;;;;;;14.60;12.50;;;;;;;-128.00;-1.00;-1.00;105510;1251;1003465;-82
2023/08/23 09:42:14;;;;;;;15.30;11.90;;;;;;;-128.00;-1.00;-1.00;105477;1254;1005134;-82
2023/08/23 09:44:43;;;;;;;13.10;11.50;;;;;;;-128.00;-1.00;-1.00;105484;1254;1003981;-82
2023/08/23 09:47:16;;;;;;;14.00;11.40;;;;;;;-128.00;-1.00;-1.00;105454;1253;1059275;-82
2023/08/23 09:49:46;;;;;;;16.40;12.00;;;;;;;-128.00;-1.00;-1.00;105451;1253;1046053;-82
2023/08/23 09:52:12;;;;;;;13.20;11.00;;;;;;;-128.00;-1.00;-1.00;105486;1254;1047726;-82
2023/08/23 09:55:03;;;;;;;17.60;13.80;;;;;;;-128.00;-1.00;-1.00;105450;1254;1004302;-83
2023/08/23 09:57:30;;;;;;;13.80;12.40;;;;;;;-128.00;-1.00;-1.00;105380;1254;1058858;-82
2023/08/23 09:59:59;;;;;;;16.00;13.20;;;;;;;-128.00;-1.00;-1.00;105222;1254;1004057;-82
2023/08/23 10:02:25;;;;;;;16.40;14.30;;;;;;;-128.00;-1.00;-1.00;105297;1256;1003961;-82
2023/08/23 10:04:52;;;;;;;19.50;15.90;;;;;;;-128.00;-1.00;-1.00;105471;1254;1005544;-82
2023/08/23 10:07:18;;;;;;;19.00;15.50;;;;;;;-128.00;-1.00;-1.00;105370;1254;1003774;-82
2023/08/23 10:09:45;;;;;;;15.80;14.30;;;;;;;-128.00;-1.00;-1.00;105121;1254;1004112;-81
2023/08/23 10:12:11;;;;;;;17.50;15.60;;;;;;;-128.00;-1.00;-1.00;105321;1254;1004624;-82
2023/08/23 10:14:43;;;;;;;20.60;15.60;;;;;;;-128.00;-1.00;-1.00;105521;1254;1004832;-81
2023/08/23 10:17:11;;;;;;;18.50;15.50;;;;;;;-128.00;-1.00;-1.00;105599;1254;1045914;-81
2023/08/23 10:19:38;;;;;;;18.10;16.00;;;;;;;-128.00;-1.00;-1.00;105269;1254;1004413;-81
2023/08/23 10:22:05;;;;;;;21.70;15.30;;;;;;;-128.00;-1.00;-1.00;105548;1251;1003896;-82
2023/08/23 10:24:31;;;;;;;20.30;17.40;;;;;;;-128.00;-1.00;-1.00;105511;1251;1003927;-81
2023/08/23 10:27:04;;;;;;;22.40;18.40;;;;;;;-128.00;-1.00;-1.00;105452;1251;1004910;-81
2023/08/23 10:29:31;;;;;;;24.40;19.10;;;;;;;-128.00;-1.00;-1.00;105567;1253;1048951;-81
2023/08/23 10:31:57;;;;;;;22.50;18.40;;;;;;;-128.00;-1.00;-1.00;105492;1253;1004865;-81
2023/08/23 10:34:24;;;;;;;24.40;19.00;;;;;;;-128.00;-1.00;-1.00;105547;1254;1004324;-81
2023/08/23 10:36:53;;;;;;;25.20;19.10;;;;;;;-128.00;-1.00;-1.00;105497;1254;1003862;-81
2023/08/23 10:39:20;;;;;;;;;;;;;;;-128.00;-1.00;-1.00;105538;1251;1003876;-81
2023/08/23 10:41:46;;;;;;;24.30;18.40;;;;;;;-128.00;-1.00;-1.00;105621;1251;1004574;-81
2023/08/23 10:44:16;;;;;;;26.40;19.40;;;;;;;-128.00;-1.00;-1.00;105395;1254;1004389;-81
2023/08/23 10:46:43;;;;;;;22.90;17.80;;;;;;;-128.00;-1.00;-1.00;105550;1254;1058260;-81
2023/08/23 10:49:13;;;;;;;21.40;17.70;;;;;;;-128.00;-1.00;-1.00;105384;1251;1004364;-81
2023/08/23 10:51:41;;;;;;;21.80;18.60;;;;;;;-128.00;-1.00;-1.00;105533;1254;1046967;-80
2023/08/23 10:54:11;;;;;;;24.10;18.70;;;;;;;-128.00;-1.00;-1.00;105435;1254;1004456;-81
2023/08/23 10:56:38;;;;;;;23.00;19.70;;;;;;;-128.00;-1.00;-1.00;105483;1251;1061600;-81
2023/08/23 10:59:06;;;;;;;26.30;18.90;;;;;;;-128.00;-1.00;-1.00;105536;1253;1004119;-81
2023/08/23 11:01:38;;;;;;;25.20;19.00;;;;;;;-128.00;-1.00;-1.00;105510;1251;1060170;-81
2023/08/23 11:04:07;;;;;;;22.70;18.60;;;;;;;-128.00;-1.00;-1.00;105452;1254;1044980;-82